KMKT/MKT METAR and TAF weather

Enter ICAO airport designator
Station Type Date Time Source
KMKT METAR 2020/01/18 23:56 UTC NOAA

KMKT 182356Z AUTO RMK AO2 SLPNO 6//// PWINO FZRANO $


Station Type Date Time Source
KMKT Decoded METAR 2020/01/18 23:56 UTC NOAA

Mankato, Mankato Regional Airport, MN, United States (KMKT) 44-13N 093-55W
Jan 18, 2020 - 06:56 PM EST / 2020.01.18 2356 UTC
ob: KMKT 182356Z AUTO RMK AO2 SLPNO 6//// PWINO FZRANO
cycle: 0

Station Type Date Time Source
KMKT TAF 2020/01/18 18:27 UTC NOAA

TAF KMKT 181726Z 1818/1918 30026G40KT 5SM BLSN SCT020 BKN040
TEMPO 1818/1822 2SM BLSN BKN020
FM182200 30024G36KT 5SM BLSN SCT040
FM190400 30018G28KT P6SM SCT060
FM190900 30014G22KT P6SM SCT050
FM191500 31012G18KT P6SM BKN025
AMD NOT SKED

Example: see airport list